createdAt,value
2018-02-22T00:00:02.975Z,-0.26
2018-02-22T00:02:29.167Z,-0.26
2018-02-22T00:04:55.588Z,-0.27
2018-02-22T00:07:21.728Z,-0.29
2018-02-22T00:09:47.976Z,-0.32
2018-02-22T00:12:14.147Z,-0.32
2018-02-22T00:14:40.364Z,-0.33
2018-02-22T00:17:06.604Z,-0.32
2018-02-22T00:19:32.817Z,-0.36
2018-02-22T00:21:59.057Z,-0.41
2018-02-22T00:24:25.256Z,-0.43
2018-02-22T00:26:51.426Z,-0.44
2018-02-22T00:29:17.589Z,-0.40
2018-02-22T00:31:43.941Z,-0.37
2018-02-22T00:34:10.092Z,-0.40
2018-02-22T00:36:36.305Z,-0.40
2018-02-22T00:39:02.575Z,-0.39
2018-02-22T00:41:28.768Z,-0.40
2018-02-22T00:43:55.014Z,-0.37
2018-02-22T00:46:21.199Z,-0.37
2018-02-22T00:48:47.367Z,-0.39
2018-02-22T00:51:13.573Z,-0.40
2018-02-22T00:53:39.736Z,-0.41
2018-02-22T00:56:05.913Z,-0.45
2018-02-22T00:58:32.155Z,-0.45
2018-02-22T01:00:58.385Z,-0.46
2018-02-22T01:03:24.553Z,-0.44
2018-02-22T01:05:50.753Z,-0.44
2018-02-22T01:08:16.953Z,-0.45
2018-02-22T01:10:43.224Z,-0.47
2018-02-22T01:13:09.498Z,-0.45
2018-02-22T01:15:35.854Z,-0.46
2018-02-22T01:18:03.174Z,-0.43
2018-02-22T01:20:29.428Z,-0.46
2018-02-22T01:22:55.580Z,-0.46
2018-02-22T01:25:22.080Z,-0.46
2018-02-22T01:27:48.290Z,-0.47
2018-02-22T01:30:14.551Z,-0.47
2018-02-22T01:32:40.824Z,-0.49
2018-02-22T01:35:07.468Z,-0.51
2018-02-22T01:37:33.892Z,-0.52
2018-02-22T01:40:00.512Z,-0.56
2018-02-22T01:42:26.777Z,-0.60
2018-02-22T01:44:53.031Z,-0.60
2018-02-22T01:50:22.775Z,-0.59
2018-02-22T01:52:48.938Z,-0.61
2018-02-22T01:55:15.577Z,-0.62
2018-02-22T01:57:41.780Z,-0.64
2018-02-22T02:03:00.147Z,-0.68
2018-02-22T02:05:26.490Z,-0.67
2018-02-22T02:11:12.053Z,-0.72
2018-02-22T02:13:38.470Z,-0.73
2018-02-22T02:16:05.213Z,-0.77
2018-02-22T02:18:31.420Z,-0.73
2018-02-22T02:20:57.686Z,-0.75
2018-02-22T02:23:23.817Z,-0.77
2018-02-22T02:47:10.067Z,-0.69
2018-02-22T02:52:40.624Z,-0.75
2018-02-22T02:55:06.793Z,-0.80
2018-02-22T02:57:32.928Z,-0.83
2018-02-22T02:59:59.147Z,-0.84
2018-02-22T03:11:33.420Z,-0.80
2018-02-22T03:13:59.755Z,-0.83
2018-02-22T03:16:25.971Z,-0.82
2018-02-22T03:18:52.129Z,-0.79
2018-02-22T03:21:18.359Z,-0.79
2018-02-22T03:23:44.513Z,-0.84
2018-02-22T03:26:10.683Z,-0.80
2018-02-22T03:28:36.861Z,-0.80
2018-02-22T03:31:03.091Z,-0.81
2018-02-22T03:33:29.280Z,-0.82
2018-02-22T03:35:55.512Z,-0.80
2018-02-22T03:38:21.664Z,-0.78
2018-02-22T03:40:47.872Z,-0.80
2018-02-22T03:43:20.956Z,-0.83
2018-02-22T03:45:47.242Z,-0.82
2018-02-22T03:48:13.413Z,-0.86
2018-02-22T03:50:39.650Z,-0.88
2018-02-22T03:53:05.868Z,-0.87
2018-02-22T03:55:32.034Z,-0.87
2018-02-22T03:57:58.169Z,-0.87
2018-02-22T04:00:24.350Z,-0.87
2018-02-22T04:02:50.517Z,-0.89
2018-02-22T04:05:16.664Z,-0.90
2018-02-22T04:07:42.896Z,-0.93
2018-02-22T04:10:09.068Z,-0.94
2018-02-22T04:12:35.278Z,-0.98
2018-02-22T04:15:01.483Z,-0.96
2018-02-22T04:17:27.628Z,-0.99
2018-02-22T04:19:53.856Z,-0.97
2018-02-22T04:22:20.051Z,-0.99
2018-02-22T04:24:46.189Z,-1.01
2018-02-22T04:27:12.361Z,-1.07
2018-02-22T04:29:38.562Z,-1.05
2018-02-22T04:32:04.782Z,-1.06
2018-02-22T04:34:31.007Z,-1.08
2018-02-22T04:36:57.148Z,-1.08
2018-02-22T04:39:23.334Z,-1.09
2018-02-22T04:41:49.650Z,-1.10
2018-02-22T04:44:15.894Z,-1.08
2018-02-22T04:46:42.195Z,-1.09
2018-02-22T04:49:08.351Z,-1.12
2018-02-22T04:51:34.603Z,-1.10
2018-02-22T04:54:00.732Z,-1.11
2018-02-22T04:56:26.894Z,-1.13
2018-02-22T04:58:53.067Z,-1.14
2018-02-22T05:01:19.286Z,-1.17
2018-02-22T05:03:45.482Z,-1.15
2018-02-22T05:06:11.625Z,-1.20
2018-02-22T05:08:37.762Z,-1.18
2018-02-22T05:11:04.003Z,-1.20
2018-02-22T05:13:30.159Z,-1.19
2018-02-22T05:15:56.326Z,-1.22
2018-02-22T05:18:22.519Z,-1.22
2018-02-22T05:20:48.653Z,-1.25
2018-02-22T05:23:14.885Z,-1.24
2018-02-22T05:25:40.987Z,-1.24
2018-02-22T05:28:07.128Z,-1.25
2018-02-22T05:30:33.338Z,-1.25
2018-02-22T05:32:59.568Z,-1.28
2018-02-22T05:35:25.746Z,-1.29
2018-02-22T05:37:51.892Z,-1.30
2018-02-22T05:40:18.078Z,-1.28
2018-02-22T05:42:44.284Z,-1.26
2018-02-22T05:45:10.474Z,-1.27
2018-02-22T05:47:37.368Z,-1.28
2018-02-22T05:50:03.516Z,-1.34
2018-02-22T05:52:29.701Z,-1.35
2018-02-22T05:54:55.907Z,-1.36
2018-02-22T05:57:22.057Z,-1.36
2018-02-22T05:59:48.197Z,-1.39
2018-02-22T06:02:14.426Z,-1.38
2018-02-22T06:04:40.669Z,-1.39
2018-02-22T06:07:06.855Z,-1.40
2018-02-22T06:09:33.052Z,-1.42
2018-02-22T06:11:59.235Z,-1.43
2018-02-22T06:14:25.451Z,-1.45
2018-02-22T06:16:51.672Z,-1.45
2018-02-22T06:19:17.877Z,-1.47
2018-02-22T06:21:44.106Z,-1.46
2018-02-22T06:24:10.267Z,-1.48
2018-02-22T06:26:36.427Z,-1.49
2018-02-22T06:29:02.630Z,-1.52
2018-02-22T06:40:37.710Z,-1.49
2018-02-22T07:04:25.463Z,-1.45
2018-02-22T07:43:29.244Z,-0.96
2018-02-22T07:45:55.651Z,-0.94
2018-02-22T07:48:21.885Z,-0.86
2018-02-22T07:57:07.929Z,-0.71
2018-02-22T08:11:44.996Z,-0.31
2018-02-22T08:17:07.724Z,-0.19
2018-02-22T08:22:37.576Z,-0.09
2018-02-22T08:25:03.782Z,-0.04
2018-02-22T08:30:34.029Z,0.14
2018-02-22T08:33:00.358Z,0.24
2018-02-22T08:35:26.587Z,0.33
2018-02-22T08:37:52.796Z,0.42
2018-02-22T08:40:19.011Z,0.53
2018-02-22T08:42:45.325Z,0.74
2018-02-22T08:45:11.504Z,1.15
2018-02-22T08:47:37.674Z,1.87
2018-02-22T08:50:03.900Z,2.76
2018-02-22T08:52:30.147Z,3.63
2018-02-22T08:54:56.527Z,4.51
2018-02-22T08:57:22.619Z,5.18
2018-02-22T08:59:49.319Z,5.50
2018-02-22T09:02:15.561Z,5.54
2018-02-22T09:04:41.694Z,5.97
2018-02-22T09:07:07.878Z,6.09
2018-02-22T09:09:34.080Z,6.33
2018-02-22T09:12:00.286Z,6.27
2018-02-22T09:14:26.512Z,6.10
2018-02-22T09:16:52.722Z,6.49
2018-02-22T09:19:18.871Z,6.22
2018-02-22T09:21:45.042Z,5.76
2018-02-22T09:24:11.249Z,5.58
2018-02-22T09:26:37.381Z,4.50
2018-02-22T09:29:03.596Z,4.29
2018-02-22T09:31:29.853Z,3.77
2018-02-22T09:33:56.051Z,3.48
2018-02-22T09:36:22.196Z,3.44
2018-02-22T09:38:48.338Z,3.25
2018-02-22T09:41:14.496Z,3.53
2018-02-22T09:43:40.725Z,3.73
2018-02-22T09:46:06.888Z,3.89
2018-02-22T09:48:33.044Z,3.85
2018-02-22T09:50:59.237Z,3.61
2018-02-22T09:53:25.423Z,3.29
2018-02-22T09:55:51.761Z,3.11
2018-02-22T09:58:17.980Z,3.02
2018-02-22T10:00:44.166Z,2.98
2018-02-22T10:03:10.373Z,2.92
2018-02-22T10:05:36.541Z,2.92
2018-02-22T10:08:02.712Z,2.91
2018-02-22T10:10:28.916Z,2.91
2018-02-22T10:12:55.104Z,2.87
2018-02-22T10:15:22.079Z,2.95
2018-02-22T10:17:48.337Z,2.92
2018-02-22T10:20:14.513Z,3.05
2018-02-22T10:22:40.723Z,3.08
2018-02-22T10:25:06.934Z,3.07
2018-02-22T10:27:33.157Z,3.14
2018-02-22T10:29:59.327Z,3.18
2018-02-22T10:32:25.529Z,3.20
2018-02-22T10:34:51.718Z,3.27
2018-02-22T10:37:17.926Z,3.26
2018-02-22T10:39:44.104Z,3.38
2018-02-22T10:42:10.247Z,3.37
2018-02-22T10:44:36.393Z,3.42
2018-02-22T10:47:02.645Z,3.40
2018-02-22T10:49:28.869Z,3.45
2018-02-22T10:51:55.037Z,3.49
2018-02-22T10:54:21.208Z,3.57
2018-02-22T10:56:47.305Z,3.57
2018-02-22T10:59:13.540Z,3.70
2018-02-22T11:01:45.886Z,3.77
2018-02-22T11:04:11.998Z,3.82
2018-02-22T11:06:38.123Z,3.78
2018-02-22T11:09:04.339Z,3.86
2018-02-22T11:11:30.456Z,3.91
2018-02-22T11:13:56.588Z,3.95
2018-02-22T11:16:22.737Z,3.98
2018-02-22T11:18:48.919Z,4.06
2018-02-22T11:21:15.044Z,4.12
2018-02-22T11:23:41.193Z,4.10
2018-02-22T11:26:07.340Z,4.12
2018-02-22T11:28:33.519Z,4.04
2018-02-22T11:30:59.620Z,4.18
2018-02-22T11:33:25.862Z,4.31
2018-02-22T11:35:51.963Z,4.36
2018-02-22T11:38:18.109Z,4.23
2018-02-22T11:40:44.246Z,4.26
2018-02-22T11:43:10.359Z,4.32
2018-02-22T11:45:36.493Z,4.36
2018-02-22T11:48:02.655Z,4.36
2018-02-22T11:50:28.781Z,4.42
2018-02-22T11:52:54.915Z,4.42
2018-02-22T11:55:21.016Z,4.40
2018-02-22T11:57:47.204Z,4.50
2018-02-22T12:00:13.388Z,4.44
2018-02-22T12:02:39.511Z,4.52
2018-02-22T12:05:05.632Z,4.49
2018-02-22T12:07:31.821Z,4.46
2018-02-22T12:09:57.925Z,4.47
2018-02-22T12:12:24.037Z,4.52
2018-02-22T12:14:50.223Z,4.57
2018-02-22T12:17:16.343Z,4.57
2018-02-22T12:19:42.493Z,4.58
2018-02-22T12:22:08.613Z,4.57
2018-02-22T12:24:34.738Z,4.56
2018-02-22T12:27:00.852Z,4.59
2018-02-22T12:29:27.061Z,4.68
2018-02-22T12:31:53.163Z,4.71
2018-02-22T12:34:19.264Z,4.70
2018-02-22T12:36:45.406Z,4.72
2018-02-22T12:39:11.570Z,4.73
2018-02-22T12:41:37.712Z,4.64
2018-02-22T12:44:03.889Z,4.70
2018-02-22T12:46:30.018Z,4.66
2018-02-22T12:48:56.191Z,4.65
2018-02-22T12:51:22.309Z,4.66
2018-02-22T12:53:48.487Z,4.70
2018-02-22T12:56:14.620Z,4.68
2018-02-22T12:58:40.731Z,4.60
2018-02-22T13:01:06.843Z,4.67
2018-02-22T13:03:33.015Z,4.80
2018-02-22T13:05:59.171Z,4.90
2018-02-22T13:08:25.458Z,4.95
2018-02-22T13:10:51.573Z,4.86
2018-02-22T13:13:17.719Z,4.79
2018-02-22T13:15:44.028Z,4.84
2018-02-22T13:18:10.229Z,4.85
2018-02-22T13:20:36.342Z,4.91
2018-02-22T13:23:02.506Z,4.91
2018-02-22T13:25:28.612Z,5.03
2018-02-22T13:27:54.789Z,5.05
2018-02-22T13:30:20.951Z,4.99
2018-02-22T13:32:59.418Z,5.05
2018-02-22T13:35:25.523Z,5.02
2018-02-22T13:38:09.512Z,5.04
2018-02-22T13:40:35.658Z,5.11
2018-02-22T13:43:01.780Z,5.18
2018-02-22T13:45:37.702Z,5.32
2018-02-22T13:48:03.857Z,5.75
2018-02-22T13:50:42.179Z,6.56
2018-02-22T13:53:08.364Z,7.61
2018-02-22T13:55:34.478Z,8.35
2018-02-22T13:58:00.652Z,9.34
2018-02-22T14:00:38.879Z,9.03
2018-02-22T14:03:05.016Z,8.87
2018-02-22T14:05:31.114Z,8.13
2018-02-22T14:07:57.268Z,7.63
2018-02-22T14:10:23.449Z,7.19
2018-02-22T14:12:49.577Z,7.03
2018-02-22T14:15:15.661Z,6.91
2018-02-22T14:17:41.822Z,6.91
2018-02-22T14:20:07.941Z,7.15
2018-02-22T14:22:34.056Z,6.85
2018-02-22T14:25:00.222Z,6.61
2018-02-22T14:27:26.394Z,6.30
2018-02-22T14:29:52.646Z,6.22
2018-02-22T14:32:18.765Z,6.12
2018-02-22T14:34:44.876Z,6.04
2018-02-22T14:37:10.997Z,5.98
2018-02-22T14:39:37.163Z,5.83
2018-02-22T14:42:03.264Z,5.75
2018-02-22T14:44:29.361Z,5.66
2018-02-22T14:46:55.509Z,5.62
2018-02-22T14:49:21.672Z,5.67
2018-02-22T14:51:47.789Z,5.81
2018-02-22T14:54:13.907Z,5.71
2018-02-22T14:56:40.054Z,5.65
2018-02-22T14:59:06.213Z,5.50
2018-02-22T15:01:32.303Z,5.48
2018-02-22T15:03:58.430Z,5.45
2018-02-22T15:06:24.544Z,5.30
2018-02-22T15:08:50.712Z,5.32
2018-02-22T15:11:16.797Z,5.28
2018-02-22T15:13:42.919Z,5.22
2018-02-22T15:16:09.051Z,5.22
2018-02-22T15:18:35.264Z,5.26
2018-02-22T15:21:01.425Z,5.21
2018-02-22T15:23:27.593Z,5.11
2018-02-22T15:25:53.690Z,5.08
2018-02-22T15:28:19.857Z,4.98
2018-02-22T15:30:45.977Z,5.07
2018-02-22T15:33:12.162Z,4.98
2018-02-22T15:35:38.320Z,5.04
2018-02-22T15:38:04.459Z,5.02
2018-02-22T15:40:30.612Z,5.00
2018-02-22T15:42:56.710Z,4.90
2018-02-22T15:45:22.794Z,4.87
2018-02-22T15:47:48.947Z,4.83
2018-02-22T15:50:15.077Z,4.81
2018-02-22T15:52:41.179Z,4.78
2018-02-22T15:55:07.463Z,4.81
2018-02-22T15:57:33.566Z,4.70
2018-02-22T15:59:59.702Z,4.65
2018-02-22T16:02:25.865Z,4.65
2018-02-22T16:04:51.996Z,4.58
2018-02-22T16:07:18.114Z,4.58
2018-02-22T16:09:44.274Z,4.58
2018-02-22T16:12:10.410Z,4.56
2018-02-22T16:14:36.531Z,4.55
2018-02-22T16:17:02.691Z,4.51
2018-02-22T16:19:28.863Z,4.43
2018-02-22T16:21:54.976Z,4.40
2018-02-22T16:24:21.160Z,4.39
2018-02-22T16:26:49.811Z,4.37
2018-02-22T16:29:15.990Z,4.38
2018-02-22T16:31:42.147Z,4.31
2018-02-22T16:34:08.266Z,4.27
2018-02-22T16:36:34.377Z,4.27
2018-02-22T16:39:00.534Z,4.25
2018-02-22T16:41:26.648Z,4.17
2018-02-22T16:43:52.762Z,4.13
2018-02-22T16:46:18.901Z,4.03
2018-02-22T16:48:45.084Z,4.00
2018-02-22T16:51:11.213Z,3.95
2018-02-22T16:53:37.358Z,3.91
2018-02-22T16:56:03.488Z,3.86
2018-02-22T16:58:29.699Z,3.76
2018-02-22T17:00:55.831Z,3.71
2018-02-22T17:03:21.936Z,3.63
2018-02-22T17:05:48.163Z,3.55
2018-02-22T17:08:14.296Z,3.54
2018-02-22T17:10:40.459Z,3.49
2018-02-22T17:13:06.599Z,3.46
2018-02-22T17:15:32.713Z,3.41
2018-02-22T17:17:58.802Z,3.39
2018-02-22T17:20:25.111Z,3.37
2018-02-22T17:22:51.272Z,3.28
2018-02-22T17:25:17.263Z,3.27
2018-02-22T17:27:49.525Z,3.20
2018-02-22T17:30:22.316Z,3.14
2018-02-22T17:32:48.441Z,3.08
2018-02-22T17:35:14.583Z,3.00
2018-02-22T17:37:40.756Z,3.01
2018-02-22T17:40:07.816Z,3.04
2018-02-22T17:42:37.942Z,3.01
2018-02-22T17:45:04.161Z,3.00
2018-02-22T17:47:30.352Z,2.96
2018-02-22T17:49:56.544Z,2.95
2018-02-22T17:52:22.687Z,2.92
2018-02-22T17:54:48.837Z,2.92
2018-02-22T17:57:15.035Z,2.94
2018-02-22T17:59:41.274Z,2.92
2018-02-22T18:02:07.464Z,2.85
2018-02-22T18:04:33.576Z,2.85
2018-02-22T18:06:59.824Z,2.83
2018-02-22T18:09:26.004Z,2.80
2018-02-22T18:11:52.179Z,2.75
2018-02-22T18:14:18.315Z,2.66
2018-02-22T18:16:44.435Z,2.62
2018-02-22T18:19:10.599Z,2.58
2018-02-22T18:21:36.757Z,2.58
2018-02-22T18:24:02.911Z,2.56
2018-02-22T18:26:29.046Z,2.55
2018-02-22T18:28:56.027Z,2.48
2018-02-22T18:31:22.165Z,2.47
2018-02-22T18:33:48.291Z,2.46
2018-02-22T18:36:14.484Z,2.42
2018-02-22T18:38:46.588Z,2.46
2018-02-22T18:41:12.785Z,2.48
2018-02-22T18:43:40.747Z,2.46
2018-02-22T18:46:06.885Z,2.44
2018-02-22T18:48:33.000Z,2.42
2018-02-22T18:50:59.175Z,2.39
2018-02-22T18:53:25.280Z,2.38
2018-02-22T18:55:51.422Z,2.39
2018-02-22T18:58:17.612Z,2.41
2018-02-22T19:00:43.779Z,2.38
2018-02-22T19:03:09.913Z,2.33
2018-02-22T19:05:36.115Z,2.29
2018-02-22T19:08:02.222Z,2.29
2018-02-22T19:10:28.409Z,2.25
2018-02-22T19:12:54.546Z,2.20
2018-02-22T19:15:20.706Z,2.12
2018-02-22T19:17:46.892Z,2.06
2018-02-22T19:20:13.069Z,2.01
2018-02-22T19:22:39.197Z,1.98
2018-02-22T19:25:05.317Z,1.92
2018-02-22T19:27:31.473Z,1.86
2018-02-22T19:29:57.788Z,1.78
2018-02-22T19:32:23.949Z,1.70
2018-02-22T19:34:50.072Z,1.70
2018-02-22T19:37:16.215Z,1.70
2018-02-22T19:39:42.410Z,1.64
2018-02-22T19:42:08.511Z,1.58
2018-02-22T19:44:34.626Z,1.58
2018-02-22T19:47:00.787Z,1.62
2018-02-22T19:49:27.026Z,1.60
2018-02-22T19:51:53.153Z,1.57
2018-02-22T19:54:19.260Z,1.58
2018-02-22T19:56:45.430Z,1.61
2018-02-22T19:59:11.663Z,1.64
2018-02-22T20:01:37.914Z,1.62
2018-02-22T20:04:04.083Z,1.60
2018-02-22T20:06:30.346Z,1.56
2018-02-22T20:08:56.582Z,1.51
2018-02-22T20:11:22.791Z,1.46
2018-02-22T20:13:49.037Z,1.40
2018-02-22T20:16:15.270Z,1.39
2018-02-22T20:18:41.414Z,1.38
2018-02-22T20:21:07.771Z,1.40
2018-02-22T20:23:34.774Z,1.39
2018-02-22T20:26:00.937Z,1.38
2018-02-22T20:28:27.155Z,1.36
2018-02-22T20:30:53.379Z,1.34
2018-02-22T20:33:19.553Z,1.37
2018-02-22T20:35:45.731Z,1.34
2018-02-22T20:38:12.024Z,1.33
2018-02-22T20:40:39.057Z,1.36
2018-02-22T20:43:05.218Z,1.32
2018-02-22T20:45:31.425Z,1.34
2018-02-22T20:47:57.587Z,1.35
2018-02-22T20:50:23.848Z,1.35
2018-02-22T20:52:50.216Z,1.34
2018-02-22T20:55:18.354Z,1.31
2018-02-22T20:57:44.576Z,1.31
2018-02-22T21:00:10.862Z,1.33
2018-02-22T21:02:37.182Z,1.34
2018-02-22T21:05:03.360Z,1.33
2018-02-22T21:07:29.629Z,1.31
2018-02-22T21:09:55.905Z,1.28
2018-02-22T21:12:22.079Z,1.27
2018-02-22T21:14:48.298Z,1.26
2018-02-22T21:17:14.529Z,1.24
2018-02-22T21:19:40.763Z,1.19
2018-02-22T21:22:06.890Z,1.19
2018-02-22T21:24:33.086Z,1.15
2018-02-22T21:26:59.262Z,1.13
2018-02-22T21:29:25.481Z,1.13
2018-02-22T21:31:51.626Z,1.11
2018-02-22T21:34:17.878Z,1.10
2018-02-22T21:36:44.361Z,1.06
2018-02-22T21:39:10.502Z,1.05
2018-02-22T21:41:36.729Z,1.06
2018-02-22T21:44:02.965Z,1.04
2018-02-22T21:46:29.106Z,0.98
2018-02-22T21:48:55.240Z,0.96
2018-02-22T21:51:21.477Z,0.93
2018-02-22T21:53:47.718Z,0.91
2018-02-22T21:56:13.907Z,0.88
2018-02-22T21:58:40.176Z,0.89
2018-02-22T22:01:06.343Z,0.88
2018-02-22T22:03:33.276Z,0.87
2018-02-22T22:05:59.476Z,0.86
2018-02-22T22:08:25.628Z,0.83
2018-02-22T22:10:51.842Z,0.81
2018-02-22T22:13:18.068Z,0.80
2018-02-22T22:15:44.404Z,0.78
2018-02-22T22:18:10.564Z,0.79
2018-02-22T22:20:36.718Z,0.74
2018-02-22T22:23:02.897Z,0.73
2018-02-22T22:25:29.159Z,0.70
2018-02-22T22:27:55.337Z,0.66
2018-02-22T22:30:21.565Z,0.64
2018-02-22T22:32:47.777Z,0.59
2018-02-22T22:35:14.044Z,0.56
2018-02-22T22:37:40.200Z,0.53
2018-02-22T22:40:06.348Z,0.46
2018-02-22T22:42:32.531Z,0.48
2018-02-22T22:44:58.723Z,0.47
2018-02-22T22:47:24.905Z,0.46
2018-02-22T22:49:51.043Z,0.45
2018-02-22T22:52:17.220Z,0.43
2018-02-22T22:54:43.470Z,0.41
2018-02-22T22:57:09.611Z,0.39
2018-02-22T22:59:35.816Z,0.38
2018-02-22T23:02:01.968Z,0.37
2018-02-22T23:04:28.151Z,0.33
2018-02-22T23:06:54.336Z,0.34
2018-02-22T23:09:20.512Z,0.31
2018-02-22T23:11:46.652Z,0.33
2018-02-22T23:14:12.798Z,0.34
2018-02-22T23:16:38.996Z,0.31
2018-02-22T23:19:05.194Z,0.29
2018-02-22T23:21:31.305Z,0.28
2018-02-22T23:23:57.503Z,0.25
2018-02-22T23:26:23.679Z,0.20
2018-02-22T23:28:49.909Z,0.21
2018-02-22T23:31:16.103Z,0.20
2018-02-22T23:33:42.315Z,0.20
2018-02-22T23:36:08.516Z,0.17
2018-02-22T23:38:34.749Z,0.15
2018-02-22T23:41:00.930Z,0.13
2018-02-22T23:43:27.183Z,0.11
2018-02-22T23:45:53.428Z,0.10
2018-02-22T23:48:19.612Z,0.05
2018-02-22T23:50:45.784Z,0.05
2018-02-22T23:53:11.968Z,0.05
2018-02-22T23:55:38.221Z,0.04
2018-02-22T23:58:04.392Z,0.02
